PWSweather.com
Personal Weather Stations
Station Observations
WD4JKH
Forsyth, GA 31029

Forsyth, GA 31029

Lat: 33.033225, Lon: -83.927995

Elevation: 709

Station Type: Davis Vantage VUE

Latest ConditionsUpdated 1:43:49 PM EST Tuesday, Nov 12, 2019
Currently Today's Max Today's Min Today's Average
Temperature 42.1°F5.6°C 59.7°F15.4°C 39.1°F3.9°C 51.1°F10.6°C
Dew Point 35.4°F1.9°C 56.5°F13.6°C 34.8°F1.6°C 46.9°F8.3°C
Winds 4.5 mph NW7.2 kmh NW 10.9 mph -17.5 kmh - - 3.3 mph 5.3 kmh
Wind Gusts 22.0 mph35.4 kmh 24.0 mph38.6 kmh - -
Humidity 77% 96% 75% 86%
Pressure 30.06 in1017.9 mb 30.07 in1018.3 mb 29.88 in1011.9 mb -
Precipitation - 0.31 in7.9 mm - -
Hour Temp Dew Point Humidity Winds Wind Gusts Pressure Precip Precip Rate Daily Precip Total
01:43 PM 42.1°F5.6°C 35.4°F1.9°C 77% 4.5 mph NW7.2 kmh NW 22.0 mph35.4 kmh 30.06 in1017.9 mb 0.00 in0.0 mm 0.00 in0.0 mm 0.31 in7.9 mm
01:38 PM 42.1°F5.6°C 35.1°F1.7°C 76% 8.4 mph WNW13.5 kmh WNW 19.0 mph30.6 kmh 30.06 in1017.9 mb 0.00 in0.0 mm 0.00 in0.0 mm 0.31 in7.9 mm
01:33 PM 42.5°F5.8°C 35.5°F1.9°C 76% 6.6 mph WNW10.6 kmh WNW 18.0 mph29.0 kmh 30.06 in1017.9 mb 0.00 in0.0 mm 0.00 in0.0 mm 0.31 in7.9 mm
01:28 PM 42.2°F5.7°C 35.6°F2.0°C 77% 6.1 mph NW9.8 kmh NW 24.0 mph38.6 kmh 30.06 in1017.9 mb 0.00 in0.0 mm 0.00 in0.0 mm 0.31 in7.9 mm
01:23 PM 41.3°F5.2°C 35.0°F1.7°C 78% 8.1 mph NNW13.0 kmh NNW 24.0 mph38.6 kmh 30.07 in1018.3 mb 0.00 in0.0 mm 0.00 in0.0 mm 0.31 in7.9 mm
01:18 PM 41.1°F5.1°C 34.8°F1.6°C 78% 7.3 mph NW11.7 kmh NW 24.0 mph38.6 kmh 30.06 in1017.9 mb 0.00 in0.0 mm 0.00 in0.0 mm 0.31 in7.9 mm
01:13 PM 40.9°F4.9°C 34.9°F1.6°C 79% 6.1 mph NW9.8 kmh NW 24.0 mph38.6 kmh 30.06 in1017.9 mb 0.00 in0.0 mm 0.00 in0.0 mm 0.31 in7.9 mm
01:08 PM 40.8°F4.9°C 35.4°F1.9°C 81% 5.2 mph NNW8.4 kmh NNW 20.0 mph32.2 kmh 30.06 in1017.9 mb 0.00 in0.0 mm 0.00 in0.0 mm 0.31 in7.9 mm
01:03 PM 40.4°F4.7°C 35.0°F1.7°C 81% 2.9 mph NW4.7 kmh NW 20.0 mph32.2 kmh 30.06 in1017.9 mb 0.00 in0.0 mm 0.00 in0.0 mm 0.31 in7.9 mm
12:58 PM 40.3°F4.6°C 34.9°F1.6°C 81% 5.4 mph NW8.7 kmh NW 18.0 mph29.0 kmh 30.06 in1017.9 mb 0.00 in0.0 mm 0.00 in0.0 mm 0.31 in7.9 mm
12:53 PM 40.1°F4.5°C 35.0°F1.7°C 82% 4.2 mph NW6.8 kmh NW 18.0 mph29.0 kmh 30.06 in1017.9 mb 0.00 in0.0 mm 0.00 in0.0 mm 0.31 in7.9 mm
12:48 PM 40.0°F4.4°C 35.3°F1.8°C 83% 4.0 mph NNW6.4 kmh NNW 23.0 mph37.0 kmh 30.06 in1017.9 mb 0.00 in0.0 mm 0.00 in0.0 mm 0.31 in7.9 mm
12:43 PM 39.8°F4.3°C 34.8°F1.6°C 82% 9.7 mph NW15.6 kmh NW 23.0 mph37.0 kmh 30.07 in1018.3 mb 0.00 in0.0 mm 0.00 in0.0 mm 0.31 in7.9 mm
12:38 PM 39.7°F4.3°C 35.0°F1.7°C 83% 5.6 mph NW9.0 kmh NW 23.0 mph37.0 kmh 30.06 in1017.9 mb 0.00 in0.0 mm 0.00 in0.0 mm 0.31 in7.9 mm
12:33 PM 39.5°F4.2°C 35.1°F1.7°C 84% 7.7 mph NW12.4 kmh NW 23.0 mph37.0 kmh 30.07 in1018.3 mb 0.00 in0.0 mm 0.00 in0.0 mm 0.31 in7.9 mm
12:28 PM 39.5°F4.2°C 35.3°F1.8°C 85% 6.8 mph NW10.9 kmh NW 19.0 mph30.6 kmh 30.07 in1018.3 mb 0.00 in0.0 mm 0.00 in0.0 mm 0.31 in7.9 mm
12:23 PM 39.5°F4.2°C 35.4°F1.9°C 85% 7.1 mph NW11.4 kmh NW 19.0 mph30.6 kmh 30.07 in1018.3 mb 0.00 in0.0 mm 0.00 in0.0 mm 0.31 in7.9 mm
12:18 PM 39.5°F4.2°C 35.6°F2.0°C 86% 6.4 mph WNW10.3 kmh WNW 16.0 mph25.7 kmh 30.06 in1017.9 mb 0.00 in0.0 mm 0.00 in0.0 mm 0.31 in7.9 mm
12:13 PM 39.5°F4.2°C 36.2°F2.3°C 88% 4.1 mph NW6.6 kmh NW 16.0 mph25.7 kmh 30.06 in1017.9 mb 0.00 in0.0 mm 0.00 in0.0 mm 0.31 in7.9 mm
12:08 PM 39.6°F4.2°C 36.9°F2.7°C 90% 5.1 mph NW8.2 kmh NW 16.0 mph25.7 kmh 30.06 in1017.9 mb 0.00 in0.0 mm 0.00 in0.0 mm 0.31 in7.9 mm
12:03 PM 39.4°F4.1°C 36.4°F2.4°C 89% 4.6 mph NW7.4 kmh NW 12.0 mph19.3 kmh 30.07 in1018.3 mb 0.00 in0.0 mm 0.00 in0.0 mm 0.31 in7.9 mm
11:58 AM 39.4°F4.1°C 36.7°F2.6°C 90% 5.4 mph NW8.7 kmh NW 13.0 mph20.9 kmh 30.07 in1018.3 mb 0.00 in0.0 mm 0.00 in0.0 mm 0.31 in7.9 mm
11:53 AM 39.4°F4.1°C 36.9°F2.7°C 91% 3.1 mph NW5.0 kmh NW 17.0 mph27.4 kmh 30.07 in1018.3 mb 0.00 in0.0 mm 0.00 in0.0 mm 0.31 in7.9 mm
11:48 AM 39.3°F4.1°C 36.8°F2.7°C 91% 2.2 mph NW3.5 kmh NW 18.0 mph29.0 kmh 30.07 in1018.3 mb 0.00 in0.0 mm 0.00 in0.0 mm 0.31 in7.9 mm
11:43 AM 39.1°F3.9°C 36.4°F2.4°C 90% 4.9 mph NW7.9 kmh NW 18.0 mph29.0 kmh 30.07 in1018.3 mb 0.00 in0.0 mm 0.00 in0.0 mm 0.31 in7.9 mm
11:38 AM 39.2°F4.0°C 36.2°F2.3°C 89% 8.6 mph NW13.8 kmh NW 18.0 mph29.0 kmh 30.07 in1018.3 mb 0.00 in0.0 mm 0.00 in0.0 mm 0.31 in7.9 mm
11:33 AM 39.3°F4.1°C 36.3°F2.4°C 89% 7.3 mph NW11.7 kmh NW 18.0 mph29.0 kmh 30.07 in1018.3 mb 0.00 in0.0 mm 0.00 in0.0 mm 0.31 in7.9 mm
11:28 AM 39.6°F4.2°C 36.9°F2.7°C 90% 4.1 mph NW6.6 kmh NW 16.0 mph25.7 kmh 30.07 in1018.3 mb 0.00 in0.0 mm 0.00 in0.0 mm 0.31 in7.9 mm
11:23 AM 39.5°F4.2°C 36.8°F2.7°C 90% 4.6 mph NW7.4 kmh NW 16.0 mph25.7 kmh 30.06 in1017.9 mb 0.00 in0.0 mm 0.00 in0.0 mm 0.31 in7.9 mm
11:18 AM 39.7°F4.3°C 36.7°F2.6°C 89% 6.8 mph NW10.9 kmh NW 17.0 mph27.4 kmh 30.06 in1017.9 mb 0.00 in0.0 mm 0.00 in0.0 mm 0.31 in7.9 mm
11:13 AM 39.9°F4.4°C 36.9°F2.7°C 89% 5.4 mph NW8.7 kmh NW 17.0 mph27.4 kmh 30.06 in1017.9 mb 0.00 in0.0 mm 0.00 in0.0 mm 0.31 in7.9 mm
11:08 AM 40.3°F4.6°C 37.8°F3.2°C 91% 2.7 mph WNW4.3 kmh WNW 19.0 mph30.6 kmh 30.06 in1017.9 mb 0.00 in0.0 mm 0.00 in0.0 mm 0.31 in7.9 mm
11:04 AM 40.4°F4.7°C 37.7°F3.2°C 90% 6.4 mph NW10.3 kmh NW 19.0 mph30.6 kmh 30.07 in1018.3 mb 0.00 in0.0 mm 0.00 in0.0 mm 0.31 in7.9 mm
10:59 AM 40.6°F4.8°C 38.1°F3.4°C 91% 3.2 mph NW5.1 kmh NW 19.0 mph30.6 kmh 30.07 in1018.3 mb 0.00 in0.0 mm 0.00 in0.0 mm 0.31 in7.9 mm
10:54 AM 40.4°F4.7°C 38.0°F3.3°C 91% 4.4 mph NW7.1 kmh NW 19.0 mph30.6 kmh 30.06 in1017.9 mb 0.00 in0.0 mm 0.00 in0.0 mm 0.31 in7.9 mm
10:49 AM 40.5°F4.7°C 38.0°F3.3°C 91% 3.6 mph NW5.8 kmh NW 19.0 mph30.6 kmh 30.06 in1017.9 mb 0.00 in0.0 mm 0.00 in0.0 mm 0.31 in7.9 mm
10:44 AM 40.5°F4.7°C 38.3°F3.5°C 92% 7.1 mph NW11.4 kmh NW 19.0 mph30.6 kmh 30.05 in1017.6 mb 0.00 in0.0 mm 0.00 in0.0 mm 0.31 in7.9 mm
10:39 AM 40.7°F4.8°C 38.5°F3.6°C 92% 7.3 mph NW11.7 kmh NW 17.0 mph27.4 kmh 30.05 in1017.6 mb 0.00 in0.0 mm 0.00 in0.0 mm 0.31 in7.9 mm
10:34 AM 40.9°F4.9°C 39.0°F3.9°C 93% 5.1 mph NW8.2 kmh NW 17.0 mph27.4 kmh 30.05 in1017.6 mb 0.00 in0.0 mm 0.00 in0.0 mm 0.31 in7.9 mm
10:29 AM 40.8°F4.9°C 38.9°F3.8°C 93% 7.9 mph NW12.7 kmh NW 17.0 mph27.4 kmh 30.05 in1017.6 mb 0.00 in0.0 mm 0.00 in0.0 mm 0.31 in7.9 mm
10:24 AM 41.0°F5.0°C 39.4°F4.1°C 94% 4.2 mph WNW6.8 kmh WNW 14.0 mph22.5 kmh 30.05 in1017.6 mb 0.00 in0.0 mm 0.00 in0.0 mm 0.31 in7.9 mm
10:19 AM 40.9°F4.9°C 39.0°F3.9°C 93% 5.2 mph NW8.4 kmh NW 14.0 mph22.5 kmh 30.05 in1017.6 mb 0.00 in0.0 mm 0.00 in0.0 mm 0.31 in7.9 mm
10:14 AM 40.9°F4.9°C 39.3°F4.1°C 94% 4.3 mph NW6.9 kmh NW 14.0 mph22.5 kmh 30.04 in1017.3 mb 0.00 in0.0 mm 0.00 in0.0 mm 0.31 in7.9 mm
10:09 AM 41.1°F5.1°C 39.5°F4.2°C 94% 3.9 mph NW6.3 kmh NW 18.0 mph29.0 kmh 30.04 in1017.3 mb 0.00 in0.0 mm 0.00 in0.0 mm 0.31 in7.9 mm
10:04 AM 41.3°F5.2°C 39.4°F4.1°C 93% 3.9 mph NW6.3 kmh NW 18.0 mph29.0 kmh 30.04 in1017.3 mb 0.00 in0.0 mm 0.00 in0.0 mm 0.31 in7.9 mm
09:59 AM 41.5°F5.3°C 39.9°F4.4°C 94% 1.0 mph WNW1.6 kmh WNW 18.0 mph29.0 kmh 30.04 in1017.3 mb 0.00 in0.0 mm 0.00 in0.0 mm 0.31 in7.9 mm
09:54 AM 41.4°F5.2°C 39.5°F4.2°C 93% 6.6 mph NW10.6 kmh NW 18.0 mph29.0 kmh 30.04 in1017.3 mb 0.00 in0.0 mm 0.00 in0.0 mm 0.31 in7.9 mm
09:49 AM 41.7°F5.4°C 39.8°F4.3°C 93% 5.0 mph NW8.0 kmh NW 14.0 mph22.5 kmh 30.03 in1016.9 mb 0.00 in0.0 mm 0.00 in0.0 mm 0.31 in7.9 mm
09:44 AM 41.9°F5.5°C 40.0°F4.4°C 93% 3.8 mph NW6.1 kmh NW 14.0 mph22.5 kmh 30.02 in1016.6 mb 0.00 in0.0 mm 0.00 in0.0 mm 0.31 in7.9 mm
09:39 AM 42.1°F5.6°C 40.2°F4.6°C 93% 4.1 mph NW6.6 kmh NW 14.0 mph22.5 kmh 30.03 in1016.9 mb 0.00 in0.0 mm 0.00 in0.0 mm 0.31 in7.9 mm
09:34 AM 42.5°F5.8°C 40.9°F4.9°C 94% 2.5 mph NW4.0 kmh NW 14.0 mph22.5 kmh 30.02 in1016.6 mb 0.01 in0.3 mm 0.00 in0.0 mm 0.31 in7.9 mm
09:29 AM 42.7°F5.9°C 41.0°F5.0°C 94% 4.8 mph NW7.7 kmh NW 14.0 mph22.5 kmh 30.02 in1016.6 mb 0.01 in0.3 mm 0.00 in0.0 mm 0.31 in7.9 mm
09:24 AM 43.0°F6.1°C 41.3°F5.2°C 94% 4.4 mph NW7.1 kmh NW 15.0 mph24.1 kmh 30.02 in1016.6 mb 0.01 in0.3 mm 0.00 in0.0 mm 0.31 in7.9 mm
09:19 AM 43.1°F6.2°C 41.4°F5.2°C 94% 4.7 mph NW7.6 kmh NW 21.0 mph33.8 kmh 30.02 in1016.6 mb 0.02 in0.5 mm 0.00 in0.0 mm 0.31 in7.9 mm
09:14 AM 43.2°F6.2°C 41.5°F5.3°C 94% 4.3 mph NNW6.9 kmh NNW 21.0 mph33.8 kmh 30.01 in1016.3 mb 0.02 in0.5 mm 0.00 in0.0 mm 0.31 in7.9 mm
09:09 AM 43.3°F6.3°C 41.4°F5.2°C 93% 5.0 mph NNW8.0 kmh NNW 21.0 mph33.8 kmh 30.01 in1016.3 mb 0.02 in0.5 mm 0.00 in0.0 mm 0.31 in7.9 mm
09:04 AM 43.5°F6.4°C 41.6°F5.3°C 93% 6.1 mph NNW9.8 kmh NNW 21.0 mph33.8 kmh 30.01 in1016.3 mb 0.02 in0.5 mm 0.00 in0.0 mm 0.31 in7.9 mm
08:59 AM 43.8°F6.6°C 41.9°F5.5°C 93% 10.9 mph NW17.5 kmh NW 21.0 mph33.8 kmh 30.01 in1016.3 mb 0.03 in0.8 mm 0.00 in0.0 mm 0.31 in7.9 mm
08:54 AM 44.3°F6.8°C 42.4°F5.8°C 93% 7.0 mph NW11.3 kmh NW 15.0 mph24.1 kmh 30.00 in1015.9 mb 0.03 in0.8 mm 0.00 in0.0 mm 0.31 in7.9 mm
08:49 AM 45.0°F7.2°C 43.1°F6.2°C 93% 6.5 mph NW10.5 kmh NW 15.0 mph24.1 kmh 30.00 in1015.9 mb 0.04 in1.0 mm 0.00 in0.0 mm 0.31 in7.9 mm
08:44 AM 46.0°F7.8°C 44.3°F6.8°C 94% 4.6 mph WNW7.4 kmh WNW 16.0 mph25.7 kmh 29.99 in1015.6 mb 0.04 in1.0 mm 0.00 in0.0 mm 0.31 in7.9 mm
08:39 AM 46.3°F7.9°C 44.6°F7.0°C 94% 4.9 mph NW7.9 kmh NW 16.0 mph25.7 kmh 29.99 in1015.6 mb 0.05 in1.3 mm 0.12 in3.0 mm 0.31 in7.9 mm
08:34 AM 46.6°F8.1°C 44.9°F7.2°C 94% 3.4 mph NW5.5 kmh NW 17.0 mph27.4 kmh 29.99 in1015.6 mb 0.04 in1.0 mm 0.00 in0.0 mm 0.30 in7.6 mm
08:29 AM 47.2°F8.4°C 45.5°F7.5°C 94% 7.7 mph NW12.4 kmh NW 17.0 mph27.4 kmh 29.99 in1015.6 mb 0.05 in1.3 mm 0.00 in0.0 mm 0.30 in7.6 mm
08:24 AM 47.8°F8.8°C 46.1°F7.8°C 94% 4.9 mph NW7.9 kmh NW 17.0 mph27.4 kmh 29.98 in1015.2 mb 0.06 in1.5 mm 0.00 in0.0 mm 0.30 in7.6 mm
08:19 AM 48.5°F9.2°C 46.8°F8.2°C 94% 4.9 mph NW7.9 kmh NW 18.0 mph29.0 kmh 29.98 in1015.2 mb 0.09 in2.3 mm 0.00 in0.0 mm 0.29 in7.4 mm
08:14 AM 48.9°F9.4°C 47.5°F8.6°C 95% 4.5 mph NW7.2 kmh NW 18.0 mph29.0 kmh 29.98 in1015.2 mb 0.11 in2.8 mm 0.00 in0.0 mm 0.29 in7.4 mm
08:09 AM 49.2°F9.6°C 47.8°F8.8°C 95% 2.3 mph WNW3.7 kmh WNW 18.0 mph29.0 kmh 29.97 in1014.9 mb 0.12 in3.0 mm 0.00 in0.0 mm 0.29 in7.4 mm
08:04 AM 49.5°F9.7°C 48.1°F8.9°C 95% 5.9 mph NW9.5 kmh NW 18.0 mph29.0 kmh 29.97 in1014.9 mb 0.14 in3.6 mm 0.00 in0.0 mm 0.29 in7.4 mm
07:59 AM 49.8°F9.9°C 48.4°F9.1°C 95% 4.1 mph NW6.6 kmh NW 11.0 mph17.7 kmh 29.96 in1014.6 mb 0.14 in3.6 mm 0.00 in0.0 mm 0.28 in7.1 mm
07:54 AM 50.1°F10.1°C 48.7°F9.3°C 95% 3.9 mph NW6.3 kmh NW 9.0 mph14.5 kmh 29.95 in1014.2 mb 0.16 in4.1 mm 0.00 in0.0 mm 0.28 in7.1 mm
07:49 AM 50.4°F10.2°C 49.0°F9.4°C 95% 2.8 mph NNW4.5 kmh NNW 9.0 mph14.5 kmh 29.94 in1013.9 mb 0.16 in4.1 mm 0.00 in0.0 mm 0.27 in6.9 mm
07:44 AM 50.6°F10.3°C 48.9°F9.4°C 94% 2.7 mph N4.3 kmh N 9.0 mph14.5 kmh 29.94 in1013.9 mb 0.18 in4.6 mm 0.00 in0.0 mm 0.27 in6.9 mm
07:39 AM 51.0°F10.6°C 49.3°F9.6°C 94% 1.9 mph N3.1 kmh N 12.0 mph19.3 kmh 29.94 in1013.9 mb 0.19 in4.8 mm 0.00 in0.0 mm 0.26 in6.6 mm
07:34 AM 51.2°F10.7°C 49.5°F9.7°C 94% 1.5 mph N2.4 kmh N 13.0 mph20.9 kmh 29.94 in1013.9 mb 0.20 in5.1 mm 0.12 in3.0 mm 0.26 in6.6 mm
07:29 AM 51.4°F10.8°C 49.7°F9.8°C 94% 3.7 mph NW6.0 kmh NW 16.0 mph25.7 kmh 29.94 in1013.9 mb 0.19 in4.8 mm 0.12 in3.0 mm 0.25 in6.4 mm
07:24 AM 52.2°F11.2°C 50.5°F10.3°C 94% 2.6 mph NW4.2 kmh NW 19.0 mph30.6 kmh 29.94 in1013.9 mb 0.18 in4.6 mm 0.36 in9.1 mm 0.23 in5.8 mm
07:19 AM 52.7°F11.5°C 50.7°F10.4°C 93% 3.5 mph NW5.6 kmh NW 20.0 mph32.2 kmh 29.95 in1014.2 mb 0.15 in3.8 mm 0.12 in3.0 mm 0.20 in5.1 mm
07:14 AM 53.4°F11.9°C 51.4°F10.8°C 93% 2.5 mph NW4.0 kmh NW 20.0 mph32.2 kmh 29.94 in1013.9 mb 0.14 in3.6 mm 0.12 in3.0 mm 0.18 in4.6 mm
07:09 AM 54.5°F12.5°C 51.9°F11.1°C 91% 4.9 mph NW7.9 kmh NW 20.0 mph32.2 kmh 29.94 in1013.9 mb 0.13 in3.3 mm 0.12 in3.0 mm 0.17 in4.3 mm
07:04 AM 56.3°F13.5°C 54.0°F12.2°C 92% 8.6 mph NW13.8 kmh NW 20.0 mph32.2 kmh 29.93 in1013.5 mb 0.12 in3.0 mm 0.00 in0.0 mm 0.15 in3.8 mm
06:59 AM 57.7°F14.3°C 56.5°F13.6°C 96% 4.7 mph NW7.6 kmh NW 13.0 mph20.9 kmh 29.92 in1013.2 mb 0.12 in3.0 mm 0.24 in6.1 mm 0.14 in3.6 mm
06:54 AM 57.7°F14.3°C 56.2°F13.4°C 95% 2.3 mph NW3.7 kmh NW 9.0 mph14.5 kmh 29.92 in1013.2 mb 0.10 in2.5 mm 0.00 in0.0 mm 0.12 in3.0 mm
06:49 AM 57.7°F14.3°C 56.2°F13.4°C 95% 1.6 mph NW2.6 kmh NW 8.0 mph12.9 kmh 29.92 in1013.2 mb 0.10 in2.5 mm 0.12 in3.0 mm 0.11 in2.8 mm
06:44 AM 57.7°F14.3°C 56.2°F13.4°C 95% 2.7 mph NW4.3 kmh NW 7.0 mph11.3 kmh 29.93 in1013.5 mb 0.09 in2.3 mm 0.24 in6.1 mm 0.09 in2.3 mm
06:39 AM 57.6°F14.2°C 56.1°F13.4°C 95% 1.4 mph W2.3 kmh W 5.0 mph8.0 kmh 29.91 in1012.9 mb 0.07 in1.8 mm 0.12 in3.0 mm 0.07 in1.8 mm
06:34 AM 57.6°F14.2°C 55.8°F13.2°C 94% 2.3 mph W3.7 kmh W 5.0 mph8.0 kmh 29.91 in1012.9 mb 0.06 in1.5 mm 0.00 in0.0 mm 0.06 in1.5 mm
06:29 AM 57.5°F14.2°C 55.7°F13.2°C 94% 1.8 mph SW2.9 kmh SW 5.0 mph8.0 kmh 29.90 in1012.5 mb 0.06 in1.5 mm 0.12 in3.0 mm 0.06 in1.5 mm
06:24 AM 57.6°F14.2°C 55.8°F13.2°C 94% 1.9 mph WSW3.1 kmh WSW 7.0 mph11.3 kmh 29.90 in1012.5 mb 0.05 in1.3 mm 0.00 in0.0 mm 0.05 in1.3 mm
06:19 AM 57.6°F14.2°C 55.6°F13.1°C 93% 1.5 mph WSW2.4 kmh WSW 7.0 mph11.3 kmh 29.90 in1012.5 mb 0.05 in1.3 mm 0.12 in3.0 mm 0.05 in1.3 mm
06:14 AM 57.7°F14.3°C 55.7°F13.2°C 93% 2.0 mph SW3.2 kmh SW 8.0 mph12.9 kmh 29.90 in1012.5 mb 0.04 in1.0 mm 0.00 in0.0 mm 0.04 in1.0 mm
06:09 AM 57.8°F14.3°C 55.5°F13.1°C 92% 2.2 mph SW3.5 kmh SW 9.0 mph14.5 kmh 29.90 in1012.5 mb 0.04 in1.0 mm 0.12 in3.0 mm 0.04 in1.0 mm
06:04 AM 58.0°F14.4°C 55.4°F13.0°C 91% 3.2 mph SW5.1 kmh SW 10.0 mph16.1 kmh 29.90 in1012.5 mb 0.03 in0.8 mm 0.01 in0.3 mm 0.03 in0.8 mm
05:59 AM 58.2°F14.6°C 55.6°F13.1°C 91% 2.7 mph SW4.3 kmh SW 10.0 mph16.1 kmh 29.90 in1012.5 mb 0.02 in0.5 mm 0.00 in0.0 mm 0.02 in0.5 mm
05:54 AM 58.4°F14.7°C 55.4°F13.0°C 90% 2.3 mph SW3.7 kmh SW 11.0 mph17.7 kmh 29.90 in1012.5 mb 0.02 in0.5 mm 0.12 in3.0 mm 0.02 in0.5 mm
05:49 AM 58.7°F14.8°C 55.1°F12.8°C 88% 1.9 mph SW3.1 kmh SW 12.0 mph19.3 kmh 29.90 in1012.5 mb 0.01 in0.3 mm 0.12 in3.0 mm 0.01 in0.3 mm
05:44 AM 59.0°F15.0°C 55.1°F12.8°C 87% 3.6 mph SW5.8 kmh SW 12.0 mph19.3 kmh 29.90 in1012.5 mb 0.00 in0.0 mm 0.00 in0.0 mm 0.00 in0.0 mm
05:39 AM 59.3°F15.2°C 55.1°F12.8°C 86% 3.4 mph SW5.5 kmh SW 12.0 mph19.3 kmh 29.90 in1012.5 mb 0.00 in0.0 mm 0.00 in0.0 mm 0.00 in0.0 mm
05:34 AM 59.6°F15.3°C 55.1°F12.8°C 85% 2.6 mph SW4.2 kmh SW 12.0 mph19.3 kmh 29.90 in1012.5 mb 0.00 in0.0 mm 0.00 in0.0 mm 0.00 in0.0 mm
05:29 AM 59.7°F15.4°C 54.9°F12.7°C 84% 3.1 mph SW5.0 kmh SW 9.0 mph14.5 kmh 29.90 in1012.5 mb 0.00 in0.0 mm 0.00 in0.0 mm 0.00 in0.0 mm
05:24 AM 59.6°F15.3°C 54.8°F12.7°C 84% 3.1 mph SW5.0 kmh SW 12.0 mph19.3 kmh 29.89 in1012.2 mb 0.00 in0.0 mm 0.00 in0.0 mm 0.00 in0.0 mm
05:19 AM 59.6°F15.3°C 54.8°F12.7°C 84% 2.2 mph SSW3.5 kmh SSW 12.0 mph19.3 kmh 29.90 in1012.5 mb 0.00 in0.0 mm 0.00 in0.0 mm 0.00 in0.0 mm
05:14 AM 59.5°F15.3°C 54.4°F12.4°C 83% 1.6 mph WSW2.6 kmh WSW 12.0 mph19.3 kmh 29.89 in1012.2 mb 0.00 in0.0 mm 0.00 in0.0 mm 0.00 in0.0 mm
05:10 AM 59.5°F15.3°C 54.4°F12.4°C 83% 2.4 mph SW3.9 kmh SW 12.0 mph19.3 kmh 29.89 in1012.2 mb 0.00 in0.0 mm 0.00 in0.0 mm 0.00 in0.0 mm
05:05 AM 59.5°F15.3°C 54.4°F12.4°C 83% 2.5 mph SW4.0 kmh SW 8.0 mph12.9 kmh 29.90 in1012.5 mb 0.00 in0.0 mm 0.00 in0.0 mm 0.00 in0.0 mm
05:00 AM 59.4°F15.2°C 54.3°F12.4°C 83% 3.3 mph SW5.3 kmh SW 8.0 mph12.9 kmh 29.89 in1012.2 mb 0.00 in0.0 mm 0.00 in0.0 mm 0.00 in0.0 mm
04:55 AM 59.3°F15.2°C 54.2°F12.3°C 83% 2.0 mph SW3.2 kmh SW 7.0 mph11.3 kmh 29.89 in1012.2 mb 0.00 in0.0 mm 0.00 in0.0 mm 0.00 in0.0 mm
04:50 AM 59.1°F15.1°C 54.0°F12.2°C 83% 1.6 mph SW2.6 kmh SW 7.0 mph11.3 kmh 29.89 in1012.2 mb 0.00 in0.0 mm 0.00 in0.0 mm 0.00 in0.0 mm
04:45 AM 59.0°F15.0°C 53.9°F12.2°C 83% 2.6 mph SSW4.2 kmh SSW 7.0 mph11.3 kmh 29.89 in1012.2 mb 0.00 in0.0 mm 0.00 in0.0 mm 0.00 in0.0 mm
04:40 AM 59.0°F15.0°C 53.9°F12.2°C 83% 2.4 mph SW3.9 kmh SW 6.0 mph9.7 kmh 29.89 in1012.2 mb 0.00 in0.0 mm 0.00 in0.0 mm 0.00 in0.0 mm
04:35 AM 59.0°F15.0°C 53.9°F12.2°C 83% 2.0 mph SW3.2 kmh SW 6.0 mph9.7 kmh 29.88 in1011.9 mb 0.00 in0.0 mm 0.00 in0.0 mm 0.00 in0.0 mm
04:30 AM 58.9°F14.9°C 53.8°F12.1°C 83% 1.8 mph SW2.9 kmh SW 6.0 mph9.7 kmh 29.89 in1012.2 mb 0.00 in0.0 mm 0.00 in0.0 mm 0.00 in0.0 mm
04:25 AM 58.8°F14.9°C 53.6°F12.0°C 83% 2.4 mph SSW3.9 kmh SSW 6.0 mph9.7 kmh 29.89 in1012.2 mb 0.00 in0.0 mm 0.00 in0.0 mm 0.00 in0.0 mm
04:20 AM 58.8°F14.9°C 53.6°F12.0°C 83% 2.4 mph S3.9 kmh S 5.0 mph8.0 kmh 29.89 in1012.2 mb 0.00 in0.0 mm 0.00 in0.0 mm 0.00 in0.0 mm
04:15 AM 58.7°F14.8°C 53.5°F11.9°C 83% 1.7 mph SW2.7 kmh SW 6.0 mph9.7 kmh 29.88 in1011.9 mb 0.00 in0.0 mm 0.00 in0.0 mm 0.00 in0.0 mm
04:10 AM 58.7°F14.8°C 53.6°F12.0°C 83% 1.4 mph SW2.3 kmh SW 6.0 mph9.7 kmh 29.89 in1012.2 mb 0.00 in0.0 mm 0.00 in0.0 mm 0.00 in0.0 mm
04:05 AM 58.6°F14.8°C 53.5°F11.9°C 83% 1.4 mph SW2.3 kmh SW 6.0 mph9.7 kmh 29.89 in1012.2 mb 0.00 in0.0 mm 0.00 in0.0 mm 0.00 in0.0 mm
04:00 AM 58.5°F14.7°C 53.4°F11.9°C 83% 1.7 mph SW2.7 kmh SW 6.0 mph9.7 kmh 29.89 in1012.2 mb 0.00 in0.0 mm 0.00 in0.0 mm 0.00 in0.0 mm
03:55 AM 58.4°F14.7°C 53.3°F11.8°C 83% 1.3 mph SW2.1 kmh SW 5.0 mph8.0 kmh 29.89 in1012.2 mb 0.00 in0.0 mm 0.00 in0.0 mm 0.00 in0.0 mm
03:50 AM 58.2°F14.6°C 53.1°F11.7°C 83% 2.2 mph SW3.5 kmh SW 5.0 mph8.0 kmh 29.89 in1012.2 mb 0.00 in0.0 mm 0.00 in0.0 mm 0.00 in0.0 mm
03:45 AM 58.1°F14.5°C 53.0°F11.7°C 83% 1.4 mph SSW2.3 kmh SSW 4.0 mph6.4 kmh 29.90 in1012.5 mb 0.00 in0.0 mm 0.00 in0.0 mm 0.00 in0.0 mm
03:40 AM 58.1°F14.5°C 53.0°F11.7°C 83% 1.4 mph SW2.3 kmh SW 4.0 mph6.4 kmh 29.90 in1012.5 mb 0.00 in0.0 mm 0.00 in0.0 mm 0.00 in0.0 mm
03:35 AM 58.1°F14.5°C 52.7°F11.5°C 82% 1.4 mph WSW2.3 kmh WSW 6.0 mph9.7 kmh 29.91 in1012.9 mb 0.00 in0.0 mm 0.00 in0.0 mm 0.00 in0.0 mm
03:30 AM 58.1°F14.5°C 52.7°F11.5°C 82% 1.3 mph SW2.1 kmh SW 6.0 mph9.7 kmh 29.91 in1012.9 mb 0.00 in0.0 mm 0.00 in0.0 mm 0.00 in0.0 mm
03:25 AM 58.0°F14.4°C 52.6°F11.4°C 82% 1.8 mph SSW2.9 kmh SSW 6.0 mph9.7 kmh 29.92 in1013.2 mb 0.00 in0.0 mm 0.00 in0.0 mm 0.00 in0.0 mm
03:20 AM 58.0°F14.4°C 52.6°F11.4°C 82% 1.4 mph SW2.3 kmh SW 6.0 mph9.7 kmh 29.92 in1013.2 mb 0.00 in0.0 mm 0.00 in0.0 mm 0.00 in0.0 mm
03:15 AM 58.1°F14.5°C 52.3°F11.3°C 81% 1.4 mph SW2.3 kmh SW 5.0 mph8.0 kmh 29.92 in1013.2 mb 0.00 in0.0 mm 0.00 in0.0 mm 0.00 in0.0 mm
03:10 AM 58.1°F14.5°C 52.3°F11.3°C 81% 2.0 mph SSW3.2 kmh SSW 5.0 mph8.0 kmh 29.93 in1013.5 mb 0.00 in0.0 mm 0.00 in0.0 mm 0.00 in0.0 mm
03:05 AM 58.0°F14.4°C 52.2°F11.2°C 81% 1.5 mph S2.4 kmh S 5.0 mph8.0 kmh 29.93 in1013.5 mb 0.00 in0.0 mm 0.00 in0.0 mm 0.00 in0.0 mm
03:00 AM 58.0°F14.4°C 52.2°F11.2°C 81% 1.0 mph SW1.6 kmh SW 5.0 mph8.0 kmh 29.93 in1013.5 mb 0.00 in0.0 mm 0.00 in0.0 mm 0.00 in0.0 mm
02:55 AM 58.0°F14.4°C 51.9°F11.1°C 80% 1.0 mph SSW1.6 kmh SSW 5.0 mph8.0 kmh 29.94 in1013.9 mb 0.00 in0.0 mm 0.00 in0.0 mm 0.00 in0.0 mm
02:50 AM 58.1°F14.5°C 52.0°F11.1°C 80% 1.0 mph WSW1.6 kmh WSW 4.0 mph6.4 kmh 29.94 in1013.9 mb 0.00 in0.0 mm 0.00 in0.0 mm 0.00 in0.0 mm
02:45 AM 58.1°F14.5°C 51.7°F10.9°C 79% 1.5 mph WSW2.4 kmh WSW 4.0 mph6.4 kmh 29.94 in1013.9 mb 0.00 in0.0 mm 0.00 in0.0 mm 0.00 in0.0 mm
02:40 AM 58.2°F14.6°C 51.8°F11.0°C 79% 1.3 mph SW2.1 kmh SW 4.0 mph6.4 kmh 29.94 in1013.9 mb 0.00 in0.0 mm 0.00 in0.0 mm 0.00 in0.0 mm
02:35 AM 58.2°F14.6°C 51.4°F10.8°C 78% Calm Calm 4.0 mph6.4 kmh 29.94 in1013.9 mb 0.00 in0.0 mm 0.00 in0.0 mm 0.00 in0.0 mm
02:30 AM 58.3°F14.6°C 51.5°F10.8°C 78% Calm Calm 3.0 mph4.8 kmh 29.95 in1014.2 mb 0.00 in0.0 mm 0.00 in0.0 mm 0.00 in0.0 mm
02:25 AM 58.3°F14.6°C 51.5°F10.8°C 78% 1.4 mph SW2.3 kmh SW 3.0 mph4.8 kmh 29.95 in1014.2 mb 0.00 in0.0 mm 0.00 in0.0 mm 0.00 in0.0 mm
02:20 AM 58.4°F14.7°C 51.6°F10.9°C 78% 1.0 mph SW1.6 kmh SW 3.0 mph4.8 kmh 29.95 in1014.2 mb 0.00 in0.0 mm 0.00 in0.0 mm 0.00 in0.0 mm
02:15 AM 58.4°F14.7°C 51.3°F10.7°C 77% 1.1 mph SW1.8 kmh SW 3.0 mph4.8 kmh 29.95 in1014.2 mb 0.00 in0.0 mm 0.00 in0.0 mm 0.00 in0.0 mm
02:10 AM 58.4°F14.7°C 51.3°F10.7°C 77% Calm Calm 3.0 mph4.8 kmh 29.95 in1014.2 mb 0.00 in0.0 mm 0.00 in0.0 mm 0.00 in0.0 mm
02:05 AM 58.4°F14.7°C 51.3°F10.7°C 77% Calm Calm 3.0 mph4.8 kmh 29.96 in1014.6 mb 0.00 in0.0 mm 0.00 in0.0 mm 0.00 in0.0 mm
02:00 AM 58.5°F14.7°C 51.4°F10.8°C 77% Calm Calm 3.0 mph4.8 kmh 29.96 in1014.6 mb 0.00 in0.0 mm 0.00 in0.0 mm 0.00 in0.0 mm
01:55 AM 58.5°F14.7°C 51.3°F10.7°C 77% 1.6 mph SW2.6 kmh SW 3.0 mph4.8 kmh 29.97 in1014.9 mb 0.00 in0.0 mm 0.00 in0.0 mm 0.00 in0.0 mm
01:50 AM 58.5°F14.7°C 51.3°F10.7°C 77% 1.0 mph SW1.6 kmh SW 3.0 mph4.8 kmh 29.97 in1014.9 mb 0.00 in0.0 mm 0.00 in0.0 mm 0.00 in0.0 mm
01:45 AM 58.6°F14.8°C 51.4°F10.8°C 77% Calm Calm 4.0 mph6.4 kmh 29.97 in1014.9 mb 0.00 in0.0 mm 0.00 in0.0 mm 0.00 in0.0 mm
01:40 AM 58.6°F14.8°C 51.5°F10.8°C 77% 1.3 mph SW2.1 kmh SW 4.0 mph6.4 kmh 29.98 in1015.2 mb 0.00 in0.0 mm 0.00 in0.0 mm 0.00 in0.0 mm
01:35 AM 58.5°F14.7°C 51.1°F10.6°C 76% 1.7 mph SW2.7 kmh SW 4.0 mph6.4 kmh 29.98 in1015.2 mb 0.00 in0.0 mm 0.00 in0.0 mm 0.00 in0.0 mm
01:30 AM 58.5°F14.7°C 51.1°F10.6°C 76% 1.7 mph SSW2.7 kmh SSW 3.0 mph4.8 kmh 29.98 in1015.2 mb 0.00 in0.0 mm 0.00 in0.0 mm 0.00 in0.0 mm
01:25 AM 58.6°F14.8°C 51.1°F10.6°C 76% 1.1 mph SW1.8 kmh SW 2.0 mph3.2 kmh 29.98 in1015.2 mb 0.00 in0.0 mm 0.00 in0.0 mm 0.00 in0.0 mm
01:20 AM 58.5°F14.7°C 51.1°F10.6°C 76% 1.7 mph SW2.7 kmh SW 2.0 mph3.2 kmh 29.98 in1015.2 mb 0.00 in0.0 mm 0.00 in0.0 mm 0.00 in0.0 mm
01:15 AM 58.4°F14.7°C 51.0°F10.6°C 76% Calm Calm 2.0 mph3.2 kmh 29.98 in1015.2 mb 0.00 in0.0 mm 0.00 in0.0 mm 0.00 in0.0 mm
01:10 AM 58.4°F14.7°C 51.0°F10.6°C 76% Calm Calm 2.0 mph3.2 kmh 29.99 in1015.6 mb 0.00 in0.0 mm 0.00 in0.0 mm 0.00 in0.0 mm
01:05 AM 58.3°F14.6°C 50.9°F10.5°C 76% 1.6 mph SW2.6 kmh SW 2.0 mph3.2 kmh 29.99 in1015.6 mb 0.00 in0.0 mm 0.00 in0.0 mm 0.00 in0.0 mm
01:00 AM 58.2°F14.6°C 51.1°F10.6°C 77% 1.5 mph SW2.4 kmh SW 2.0 mph3.2 kmh 29.99 in1015.6 mb 0.00 in0.0 mm 0.00 in0.0 mm 0.00 in0.0 mm
12:55 AM 58.2°F14.6°C 51.1°F10.6°C 77% Calm Calm 2.0 mph3.2 kmh 29.99 in1015.6 mb 0.00 in0.0 mm 0.00 in0.0 mm 0.00 in0.0 mm
12:50 AM 58.3°F14.6°C 50.8°F10.4°C 76% Calm Calm 3.0 mph4.8 kmh 30.00 in1015.9 mb 0.00 in0.0 mm 0.00 in0.0 mm 0.00 in0.0 mm
12:45 AM 58.3°F14.6°C 50.8°F10.4°C 76% 1.0 mph SW1.6 kmh SW 3.0 mph4.8 kmh 30.00 in1015.9 mb 0.00 in0.0 mm 0.00 in0.0 mm 0.00 in0.0 mm
12:40 AM 58.4°F14.7°C 51.0°F10.6°C 76% 1.1 mph SW1.8 kmh SW 3.0 mph4.8 kmh 30.00 in1015.9 mb 0.00 in0.0 mm 0.00 in0.0 mm 0.00 in0.0 mm
12:35 AM 58.4°F14.7°C 50.9°F10.5°C 76% 1.3 mph SW2.1 kmh SW 3.0 mph4.8 kmh 30.00 in1015.9 mb 0.00 in0.0 mm 0.00 in0.0 mm 0.00 in0.0 mm
12:30 AM 58.4°F14.7°C 51.0°F10.6°C 76% 1.0 mph SW1.6 kmh SW 3.0 mph4.8 kmh 30.00 in1015.9 mb 0.00 in0.0 mm 0.00 in0.0 mm 0.00 in0.0 mm
12:25 AM 58.5°F14.7°C 50.7°F10.4°C 75% 1.0 mph SW1.6 kmh SW 3.0 mph4.8 kmh 30.01 in1016.3 mb 0.00 in0.0 mm 0.00 in0.0 mm 0.00 in0.0 mm
12:20 AM 58.5°F14.7°C 50.7°F10.4°C 75% 1.0 mph SW1.6 kmh SW 3.0 mph4.8 kmh 30.01 in1016.3 mb 0.00 in0.0 mm 0.00 in0.0 mm 0.00 in0.0 mm
12:15 AM 58.4°F14.7°C 51.0°F10.6°C 76% 1.2 mph SW1.9 kmh SW 3.0 mph4.8 kmh 30.01 in1016.3 mb 0.00 in0.0 mm 0.00 in0.0 mm 0.00 in0.0 mm
12:11 AM 58.4°F14.7°C 51.0°F10.6°C 76% 1.0 mph SW1.6 kmh SW 2.0 mph3.2 kmh 30.01 in1016.3 mb 0.00 in0.0 mm 0.00 in0.0 mm 0.00 in0.0 mm
12:06 AM 58.4°F14.7°C 50.6°F10.3°C 75% Calm Calm 1.0 mph1.6 kmh 30.02 in1016.6 mb 0.00 in0.0 mm 0.00 in0.0 mm 0.00 in0.0 mm
12:01 AM 58.5°F14.7°C 50.7°F10.4°C 75% 1.0 mph SW1.6 kmh SW 1.0 mph1.6 kmh 30.02 in1016.6 mb 0.00 in0.0 mm 0.00 in0.0 mm 0.00 in0.0 mm